createdAt,value
2019-04-25T00:00:24.850Z,92.30
2019-04-25T00:02:55.033Z,92.20
2019-04-25T00:05:25.189Z,91.30
2019-04-25T00:07:55.132Z,89.40
2019-04-25T00:10:25.515Z,86.00
2019-04-25T00:12:55.533Z,86.10
2019-04-25T00:15:27.077Z,86.50
2019-04-25T00:17:57.021Z,84.80
2019-04-25T00:20:28.520Z,85.70
2019-04-25T00:23:01.913Z,85.70
2019-04-25T00:25:51.328Z,85.30
2019-04-25T00:28:22.453Z,85.70
2019-04-25T00:30:53.132Z,85.90
2019-04-25T00:33:23.760Z,84.50
2019-04-25T00:35:53.727Z,84.60
2019-04-25T00:38:23.679Z,85.30
2019-04-25T00:40:53.687Z,84.10
2019-04-25T00:43:23.635Z,83.20
2019-04-25T00:45:53.611Z,83.70
2019-04-25T00:48:23.584Z,83.50
2019-04-25T00:50:54.603Z,83.50
2019-04-25T00:53:24.681Z,84.00
2019-04-25T00:55:54.626Z,83.70
2019-04-25T00:58:26.307Z,84.40
2019-04-25T01:01:14.455Z,84.40
2019-04-25T01:03:45.329Z,84.20
2019-04-25T01:06:15.325Z,85.60
2019-04-25T01:08:45.801Z,85.20
2019-04-25T01:11:15.754Z,85.30
2019-04-25T01:13:46.203Z,85.70
2019-04-25T01:16:16.513Z,86.20
2019-04-25T01:18:46.837Z,86.70
2019-04-25T01:21:16.800Z,87.30
2019-04-25T01:23:47.296Z,87.30
2019-04-25T01:26:17.319Z,87.80
2019-04-25T01:28:47.649Z,87.70
2019-04-25T01:31:19.338Z,87.90
2019-04-25T01:33:50.434Z,88.00
2019-04-25T01:36:38.109Z,88.00
2019-04-25T01:39:14.356Z,88.30
2019-04-25T01:42:05.307Z,88.80
2019-04-25T01:44:36.935Z,88.90
2019-04-25T01:47:07.057Z,88.80
2019-04-25T01:49:37.037Z,89.10
2019-04-25T01:52:07.037Z,89.10
2019-04-25T01:54:36.996Z,89.70
2019-04-25T01:57:08.508Z,90.00
2019-04-25T01:59:38.470Z,90.30
2019-04-25T02:02:10.438Z,90.90
2019-04-25T02:04:40.391Z,91.10
2019-04-25T02:07:10.507Z,91.20
2019-04-25T02:09:40.465Z,91.30
2019-04-25T02:12:13.510Z,91.50
2019-04-25T02:14:43.707Z,91.70
2019-04-25T02:17:14.201Z,91.90
2019-04-25T02:19:44.256Z,91.70
2019-04-25T02:22:15.796Z,92.20
2019-04-25T02:24:45.758Z,92.30
2019-04-25T02:27:15.693Z,92.20
2019-04-25T02:29:45.663Z,92.20
2019-04-25T02:32:15.613Z,92.60
2019-04-25T02:34:45.773Z,92.80
2019-04-25T02:37:16.383Z,92.90
2019-04-25T02:39:46.439Z,93.20
2019-04-25T02:42:16.823Z,93.10
2019-04-25T02:44:49.647Z,93.60
2019-04-25T02:47:30.536Z,93.40
2019-04-25T02:50:18.373Z,93.70
2019-04-25T02:52:49.958Z,94.80
2019-04-25T02:55:30.818Z,95.40
2019-04-25T02:57:51.488Z,95.50
2019-04-25T03:00:25.336Z,96.30
2019-04-25T03:02:57.316Z,96.40
2019-04-25T03:05:27.102Z,96.50
2019-04-25T03:07:58.458Z,95.90
2019-04-25T03:10:28.661Z,96.30
2019-04-25T03:13:00.001Z,96.10
2019-04-25T03:15:30.158Z,96.30
2019-04-25T03:18:00.255Z,96.50
2019-04-25T03:20:31.926Z,96.20
2019-04-25T03:23:08.996Z,96.80
2019-04-25T03:25:37.988Z,97.00
2019-04-25T03:28:07.935Z,97.00
2019-04-25T03:30:38.080Z,97.00
2019-04-25T03:33:13.014Z,96.90
2019-04-25T03:35:39.629Z,96.90
2019-04-25T03:38:09.567Z,96.70
2019-04-25T03:40:39.602Z,96.60
2019-04-25T03:43:09.591Z,96.40
2019-04-25T03:45:39.638Z,96.30
2019-04-25T03:48:09.627Z,96.30
2019-04-25T03:50:40.736Z,96.50
2019-04-25T03:53:10.683Z,96.70
2019-04-25T03:55:40.662Z,96.30
2019-04-25T03:58:11.681Z,96.90
2019-04-25T04:00:41.895Z,97.20
2019-04-25T04:03:11.889Z,97.50
2019-04-25T04:05:41.935Z,97.80
2019-04-25T04:08:11.950Z,98.40
2019-04-25T04:10:43.262Z,98.30
2019-04-25T04:13:14.591Z,98.80
2019-04-25T04:15:44.788Z,98.90
2019-04-25T04:18:26.476Z,98.30
2019-04-25T04:20:55.784Z,97.80
2019-04-25T04:23:30.511Z,97.70
2019-04-25T04:26:00.545Z,97.40
2019-04-25T04:28:30.491Z,97.60
2019-04-25T04:31:00.542Z,97.60
2019-04-25T04:33:32.896Z,97.50
2019-04-25T04:36:03.897Z,97.50
2019-04-25T04:38:35.040Z,97.70
2019-04-25T04:41:04.965Z,97.80
2019-04-25T04:43:34.919Z,97.90
2019-04-25T04:46:04.883Z,97.90
2019-04-25T04:48:34.834Z,97.60
2019-04-25T04:51:04.880Z,97.60
2019-04-25T04:53:35.848Z,97.80
2019-04-25T04:56:06.026Z,97.70
2019-04-25T04:58:37.040Z,97.70
2019-04-25T05:01:07.116Z,97.80
2019-04-25T05:03:41.468Z,97.90
2019-04-25T05:06:14.996Z,97.60
2019-04-25T05:08:46.284Z,97.70
2019-04-25T05:11:17.033Z,97.60
2019-04-25T05:13:47.838Z,97.40
2019-04-25T05:16:17.812Z,97.40
2019-04-25T05:18:47.763Z,97.60
2019-04-25T05:21:18.257Z,97.50
2019-04-25T05:23:48.801Z,97.60
2019-04-25T05:26:18.956Z,97.70
2019-04-25T05:28:48.991Z,97.50
2019-04-25T05:31:21.350Z,97.10
2019-04-25T05:33:53.666Z,96.70
2019-04-25T05:36:25.542Z,96.20
2019-04-25T05:38:55.490Z,95.20
2019-04-25T05:41:29.819Z,94.70
2019-04-25T05:43:59.812Z,93.80
2019-04-25T05:46:29.858Z,93.50
2019-04-25T05:48:59.848Z,93.70
2019-04-25T05:51:29.822Z,93.60
2019-04-25T05:53:59.767Z,92.70
2019-04-25T05:56:29.735Z,93.70
2019-04-25T05:58:59.689Z,92.90
2019-04-25T06:01:30.227Z,92.10
2019-04-25T06:04:00.205Z,92.20
2019-04-25T06:06:30.205Z,92.10
2019-04-25T06:09:01.790Z,90.50
2019-04-25T06:11:44.265Z,91.10
2019-04-25T06:14:15.842Z,90.80
2019-04-25T06:16:45.810Z,90.10
2019-04-25T06:19:21.234Z,90.00
2019-04-25T06:21:53.434Z,89.80
2019-04-25T06:24:27.827Z,89.70
2019-04-25T06:26:59.437Z,90.00
2019-04-25T06:29:29.392Z,89.00
2019-04-25T06:32:06.658Z,89.60
2019-04-25T06:34:33.983Z,90.30
2019-04-25T06:37:04.387Z,88.30
2019-04-25T06:39:34.096Z,88.90
2019-04-25T06:42:04.348Z,88.50
2019-04-25T06:44:47.764Z,87.80
2019-04-25T06:47:36.015Z,87.00
2019-04-25T06:50:07.481Z,86.70
2019-04-25T06:52:37.447Z,85.30
2019-04-25T06:55:07.796Z,84.00
2019-04-25T06:57:37.769Z,83.40
2019-04-25T07:00:11.629Z,82.90
2019-04-25T07:02:43.515Z,82.60
2019-04-25T07:05:25.827Z,80.60
2019-04-25T07:07:45.608Z,81.00
2019-04-25T07:10:15.987Z,80.30
2019-04-25T07:12:45.960Z,79.10
2019-04-25T07:15:17.611Z,78.50
2019-04-25T07:17:47.583Z,79.20
2019-04-25T07:20:18.572Z,79.50
2019-04-25T07:22:48.557Z,78.90
2019-04-25T07:25:19.312Z,78.90
2019-04-25T07:28:06.269Z,78.20
2019-04-25T07:30:54.690Z,78.40
2019-04-25T07:33:28.131Z,76.50
2019-04-25T07:35:58.103Z,76.10
2019-04-25T07:38:29.011Z,76.50
2019-04-25T07:40:59.016Z,75.50
2019-04-25T07:43:29.641Z,77.20
2019-04-25T07:45:59.610Z,78.80
2019-04-25T07:48:30.059Z,77.50
2019-04-25T07:51:00.100Z,78.10
2019-04-25T07:53:30.590Z,79.20
2019-04-25T07:56:01.414Z,75.90
2019-04-25T07:58:44.923Z,75.90
2019-04-25T08:01:05.885Z,76.10
2019-04-25T08:03:36.540Z,77.20
2019-04-25T08:06:06.567Z,72.20
2019-04-25T08:08:36.536Z,73.10
2019-04-25T08:11:08.491Z,72.10
2019-04-25T08:13:40.169Z,72.80
2019-04-25T08:16:31.141Z,71.90
2019-04-25T08:19:03.937Z,73.40
2019-04-25T08:21:35.131Z,74.20
2019-04-25T08:24:05.790Z,72.30
2019-04-25T08:26:36.419Z,73.00
2019-04-25T08:29:07.256Z,73.10
2019-04-25T08:31:37.753Z,71.60
2019-04-25T08:34:08.838Z,69.60
2019-04-25T08:36:39.939Z,70.80
2019-04-25T08:39:11.687Z,70.40
2019-04-25T08:41:41.808Z,67.60
2019-04-25T08:44:11.857Z,66.60
2019-04-25T08:46:44.225Z,66.50
2019-04-25T08:49:18.625Z,70.70
2019-04-25T08:51:50.432Z,69.10
2019-04-25T08:54:23.618Z,65.20
2019-04-25T08:56:55.490Z,67.30
2019-04-25T08:59:40.061Z,66.40
2019-04-25T09:02:06.393Z,67.40
2019-04-25T09:04:42.619Z,67.10
2019-04-25T09:07:13.407Z,63.60
2019-04-25T09:09:44.054Z,67.60
2019-04-25T09:12:15.038Z,66.60
2019-04-25T09:14:46.438Z,64.90
2019-04-25T09:17:16.456Z,69.00
2019-04-25T09:19:46.437Z,64.00
2019-04-25T09:22:16.387Z,66.00
2019-04-25T09:24:46.365Z,69.70
2019-04-25T09:27:16.390Z,69.20
2019-04-25T09:29:47.432Z,62.80
2019-04-25T09:32:17.588Z,60.20
2019-04-25T09:34:48.051Z,60.10
2019-04-25T09:37:18.059Z,60.00
2019-04-25T09:39:49.662Z,61.70
2019-04-25T09:42:19.673Z,64.80
2019-04-25T09:44:53.996Z,64.90
2019-04-25T09:47:24.012Z,63.00
2019-04-25T09:49:54.436Z,63.30
2019-04-25T09:52:24.483Z,59.50
2019-04-25T09:54:56.075Z,56.10
2019-04-25T09:57:44.848Z,58.70
2019-04-25T10:00:23.267Z,57.60
2019-04-25T10:02:55.292Z,54.20
2019-04-25T10:05:24.937Z,52.30
2019-04-25T10:07:55.023Z,55.30
2019-04-25T10:10:25.866Z,55.40
2019-04-25T10:12:55.815Z,56.00
2019-04-25T10:15:37.668Z,55.10
2019-04-25T10:18:07.695Z,56.10
2019-04-25T10:20:37.681Z,54.30
2019-04-25T10:23:09.638Z,53.10
2019-04-25T10:25:39.709Z,52.40
2019-04-25T10:28:09.659Z,51.30
2019-04-25T10:30:41.010Z,53.80
2019-04-25T10:33:11.147Z,50.30
2019-04-25T10:35:50.814Z,51.60
2019-04-25T10:38:14.350Z,48.70
2019-04-25T10:40:47.417Z,49.80
2019-04-25T10:43:17.515Z,47.50
2019-04-25T10:45:48.707Z,51.90
2019-04-25T10:48:18.759Z,46.60
2019-04-25T10:50:48.825Z,45.80
2019-04-25T10:53:18.775Z,46.00
2019-04-25T10:55:49.663Z,43.70
2019-04-25T10:58:19.675Z,44.10
2019-04-25T11:00:51.642Z,42.40
2019-04-25T11:03:29.656Z,42.20
2019-04-25T11:05:59.628Z,42.00
2019-04-25T11:08:29.642Z,40.80
2019-04-25T11:10:59.611Z,39.90
2019-04-25T11:13:29.626Z,39.40
2019-04-25T11:16:00.041Z,42.50
2019-04-25T11:18:30.051Z,40.90
2019-04-25T11:21:00.069Z,39.80
2019-04-25T11:23:30.128Z,39.90
2019-04-25T11:26:00.212Z,35.70
2019-04-25T11:28:30.331Z,36.90
2019-04-25T11:31:00.467Z,33.80
2019-04-25T11:33:30.572Z,37.00
2019-04-25T11:36:00.527Z,36.90
2019-04-25T11:38:50.319Z,33.70
2019-04-25T11:41:21.944Z,34.70
2019-04-25T11:43:51.890Z,35.60
2019-04-25T11:46:22.014Z,33.60
2019-04-25T11:48:52.681Z,36.10
2019-04-25T11:51:24.124Z,35.30
2019-04-25T11:53:55.562Z,35.40
2019-04-25T11:56:25.692Z,33.50
2019-04-25T11:58:55.651Z,31.20
2019-04-25T12:01:26.180Z,30.50
2019-04-25T12:03:56.177Z,33.00
2019-04-25T12:06:26.077Z,29.80
2019-04-25T12:08:56.425Z,31.40
2019-04-25T12:11:27.057Z,30.70
2019-04-25T12:13:58.084Z,30.30
2019-04-25T12:16:28.313Z,31.70
2019-04-25T12:18:58.269Z,33.60
2019-04-25T12:21:28.222Z,31.90
2019-04-25T12:23:58.182Z,34.30
2019-04-25T12:26:28.119Z,32.40
2019-04-25T12:28:58.076Z,35.50
2019-04-25T12:31:28.023Z,34.20
2019-04-25T12:33:58.420Z,34.20
2019-04-25T12:36:28.443Z,34.50
2019-04-25T12:38:58.793Z,35.00
2019-04-25T12:41:28.821Z,35.30
2019-04-25T12:44:12.247Z,33.30
2019-04-25T12:46:43.837Z,30.80
2019-04-25T12:49:15.249Z,30.20
2019-04-25T12:51:45.493Z,29.90
2019-04-25T12:54:16.431Z,29.90
2019-04-25T12:56:47.399Z,30.50
2019-04-25T12:59:17.390Z,30.00
2019-04-25T13:01:47.342Z,27.60
2019-04-25T13:04:17.291Z,29.10
2019-04-25T13:06:48.746Z,28.20
2019-04-25T13:09:18.815Z,29.60
2019-04-25T13:11:48.763Z,29.80
2019-04-25T13:14:19.572Z,29.90
2019-04-25T13:16:49.663Z,29.20
2019-04-25T13:19:23.904Z,28.60
2019-04-25T13:21:51.286Z,28.20
2019-04-25T13:24:21.193Z,28.80
2019-04-25T13:26:56.862Z,29.10
2019-04-25T13:29:31.175Z,29.10
2019-04-25T13:32:18.949Z,28.20
2019-04-25T13:34:53.771Z,28.80
2019-04-25T13:37:24.221Z,27.80
2019-04-25T13:39:54.194Z,27.90
2019-04-25T13:42:24.188Z,28.20
2019-04-25T13:44:54.340Z,29.00
2019-04-25T13:47:27.988Z,28.20
2019-04-25T13:49:55.926Z,27.20
2019-04-25T13:52:25.947Z,27.50
2019-04-25T13:54:55.971Z,28.90
2019-04-25T13:57:26.203Z,28.10
2019-04-25T13:59:57.897Z,28.10
2019-04-25T14:02:28.837Z,27.90
2019-04-25T14:04:59.020Z,27.80
2019-04-25T14:07:29.582Z,27.60
2019-04-25T14:09:59.593Z,28.00
2019-04-25T14:12:30.321Z,27.50
2019-04-25T14:15:00.597Z,26.80
2019-04-25T14:17:33.493Z,28.10
2019-04-25T14:20:14.105Z,28.40
2019-04-25T14:22:45.388Z,28.00
2019-04-25T14:25:16.737Z,27.30
2019-04-25T14:27:46.666Z,27.00
2019-04-25T14:30:18.338Z,27.50
2019-04-25T14:32:48.296Z,28.50
2019-04-25T14:35:18.271Z,27.50
2019-04-25T14:37:48.218Z,28.10
2019-04-25T14:40:18.459Z,27.40
2019-04-25T14:42:48.743Z,26.00
2019-04-25T14:45:19.560Z,27.20
2019-04-25T14:47:49.506Z,27.50
2019-04-25T14:50:19.480Z,26.20
2019-04-25T14:52:49.431Z,26.60
2019-04-25T14:55:27.373Z,27.10
2019-04-25T14:57:58.761Z,26.70
2019-04-25T15:00:36.413Z,26.70
2019-04-25T15:03:06.826Z,27.20
2019-04-25T15:05:37.338Z,27.30
2019-04-25T15:08:08.342Z,27.20
2019-04-25T15:10:38.392Z,27.50
2019-04-25T15:13:08.904Z,27.60
2019-04-25T15:15:38.874Z,26.30
2019-04-25T15:18:08.828Z,26.80
2019-04-25T15:20:38.799Z,26.70
2019-04-25T15:23:09.819Z,27.00
2019-04-25T15:25:39.787Z,29.20
2019-04-25T15:28:10.070Z,27.50
2019-04-25T15:30:40.611Z,28.20
2019-04-25T15:33:11.726Z,27.80
2019-04-25T15:35:55.098Z,26.70
2019-04-25T15:38:26.974Z,28.00
2019-04-25T15:41:04.703Z,28.20
2019-04-25T15:43:36.291Z,28.90
2019-04-25T15:46:07.900Z,28.00
2019-04-25T15:48:38.119Z,27.40
2019-04-25T15:51:08.144Z,27.00
2019-04-25T15:53:38.136Z,27.20
2019-04-25T15:56:08.048Z,27.80
2019-04-25T15:58:38.059Z,29.00
2019-04-25T16:01:08.299Z,28.00
2019-04-25T16:03:38.884Z,28.70
2019-04-25T16:06:08.887Z,28.50
2019-04-25T16:08:38.834Z,29.40
2019-04-25T16:11:09.770Z,29.20
2019-04-25T16:13:39.725Z,29.60
2019-04-25T16:16:09.765Z,29.10
2019-04-25T16:18:39.727Z,29.30
2019-04-25T16:21:09.807Z,30.40
2019-04-25T16:23:39.839Z,30.80
2019-04-25T16:26:10.369Z,31.20
2019-04-25T16:28:40.322Z,31.80
2019-04-25T16:31:11.924Z,31.60
2019-04-25T16:33:42.146Z,31.30
2019-04-25T16:36:13.259Z,31.90
2019-04-25T16:38:43.203Z,32.30
2019-04-25T16:41:13.149Z,33.20
2019-04-25T16:43:50.704Z,31.50
2019-04-25T16:46:21.827Z,31.60
2019-04-25T16:48:51.784Z,32.80
2019-04-25T16:51:23.483Z,32.30
2019-04-25T16:53:53.503Z,31.90
2019-04-25T16:56:23.466Z,32.10
2019-04-25T16:58:53.498Z,32.10
2019-04-25T17:01:24.608Z,32.40
2019-04-25T17:03:54.662Z,32.60
2019-04-25T17:06:24.752Z,33.30
2019-04-25T17:08:54.804Z,33.90
2019-04-25T17:11:39.189Z,33.30
2019-04-25T17:14:19.739Z,33.80
2019-04-25T17:17:00.618Z,34.40
2019-04-25T17:19:38.955Z,34.80
2019-04-25T17:22:09.045Z,35.00
2019-04-25T17:24:39.276Z,35.20
2019-04-25T17:27:10.028Z,36.00
2019-04-25T17:29:40.140Z,35.80
2019-04-25T17:32:11.857Z,35.60
2019-04-25T17:34:43.502Z,36.20
2019-04-25T17:37:15.191Z,37.30
2019-04-25T17:39:46.852Z,36.40
2019-04-25T17:42:16.853Z,37.00
2019-04-25T17:44:46.783Z,38.20
2019-04-25T17:47:16.925Z,37.80
2019-04-25T17:49:46.870Z,37.90
2019-04-25T17:52:16.893Z,37.90
2019-04-25T17:54:47.279Z,38.90
2019-04-25T17:57:17.238Z,38.60
2019-04-25T17:59:47.193Z,39.70
2019-04-25T18:02:17.143Z,41.60
2019-04-25T18:04:47.104Z,41.80
2019-04-25T18:07:17.100Z,42.30
2019-04-25T18:09:47.117Z,42.30
2019-04-25T18:12:17.075Z,43.20
2019-04-25T18:14:47.499Z,43.30
2019-04-25T18:17:19.045Z,42.60
2019-04-25T18:19:50.626Z,43.00
2019-04-25T18:22:27.996Z,43.30
2019-04-25T18:24:59.595Z,42.70
2019-04-25T18:27:49.198Z,43.50
2019-04-25T18:30:19.324Z,44.30
2019-04-25T18:32:50.907Z,45.70
2019-04-25T18:35:22.494Z,46.00
2019-04-25T18:38:08.859Z,46.80
2019-04-25T18:40:55.518Z,47.10
2019-04-25T18:43:27.114Z,46.90
2019-04-25T18:45:58.942Z,49.00
2019-04-25T18:48:29.854Z,49.00
2019-04-25T18:50:59.835Z,49.50
2019-04-25T18:53:49.281Z,50.30
2019-04-25T18:56:37.560Z,50.90
2019-04-25T18:59:11.919Z,50.80
2019-04-25T19:01:59.656Z,51.60
2019-04-25T19:04:33.959Z,51.80
2019-04-25T19:07:04.178Z,52.10
2019-04-25T19:09:34.164Z,53.00
2019-04-25T19:12:04.188Z,53.60
2019-04-25T19:14:34.162Z,53.50
2019-04-25T19:17:04.971Z,54.60
2019-04-25T19:19:34.970Z,54.30
2019-04-25T19:22:05.147Z,54.40
2019-04-25T19:24:35.127Z,55.90
2019-04-25T19:27:05.194Z,55.10
2019-04-25T19:29:35.170Z,56.30
2019-04-25T19:32:05.210Z,56.90
2019-04-25T19:34:35.187Z,59.30
2019-04-25T19:37:05.133Z,60.50
2019-04-25T19:39:36.748Z,60.60
2019-04-25T19:42:11.528Z,60.70
2019-04-25T19:44:42.313Z,59.50
2019-04-25T19:47:13.427Z,60.70
2019-04-25T19:49:43.394Z,62.70
2019-04-25T19:52:13.357Z,63.50
2019-04-25T19:54:43.357Z,63.20
2019-04-25T19:57:13.281Z,64.20
2019-04-25T19:59:44.607Z,66.40
2019-04-25T20:02:17.200Z,68.80
2019-04-25T20:04:48.878Z,68.50
2019-04-25T20:07:26.251Z,69.30
2019-04-25T20:10:15.602Z,69.90
2019-04-25T20:12:50.318Z,71.00
2019-04-25T20:15:18.851Z,70.20
2019-04-25T20:17:49.743Z,72.30
2019-04-25T20:20:20.043Z,72.90
2019-04-25T20:22:50.253Z,72.20
2019-04-25T20:25:20.339Z,72.30
2019-04-25T20:27:50.754Z,72.80
2019-04-25T20:30:23.386Z,74.80
2019-04-25T20:32:53.568Z,74.20
2019-04-25T20:35:23.636Z,77.00
2019-04-25T20:37:53.578Z,77.50
2019-04-25T20:40:24.528Z,77.40
2019-04-25T20:42:54.467Z,77.80
2019-04-25T20:45:24.507Z,77.60
2019-04-25T20:47:54.744Z,77.70
2019-04-25T20:50:24.922Z,78.10
2019-04-25T20:52:55.084Z,77.70
2019-04-25T20:55:25.081Z,78.30
2019-04-25T20:57:56.000Z,79.30
2019-04-25T21:00:40.810Z,79.30
2019-04-25T21:03:10.893Z,79.60
2019-04-25T21:05:41.043Z,80.00
2019-04-25T21:08:11.008Z,80.40
2019-04-25T21:10:40.951Z,80.30
2019-04-25T21:13:12.580Z,80.40
2019-04-25T21:15:54.140Z,81.30
2019-04-25T21:18:31.892Z,81.90
2019-04-25T21:21:02.104Z,82.50
2019-04-25T21:23:32.258Z,82.50
2019-04-25T21:26:03.270Z,82.00
2019-04-25T21:28:33.310Z,82.10
2019-04-25T21:31:03.480Z,82.20
2019-04-25T21:33:33.683Z,82.10
2019-04-25T21:36:04.087Z,82.00
2019-04-25T21:38:34.759Z,82.00
2019-04-25T21:41:06.419Z,83.10
2019-04-25T21:43:38.310Z,82.50
2019-04-25T21:46:08.535Z,81.90
2019-04-25T21:48:38.793Z,83.10
2019-04-25T21:51:26.619Z,83.60
2019-04-25T21:53:57.291Z,83.40
2019-04-25T21:56:27.649Z,83.80
2019-04-25T21:58:57.878Z,84.40
2019-04-25T22:01:30.413Z,84.80
2019-04-25T22:04:00.755Z,84.60
2019-04-25T22:06:32.543Z,84.60
2019-04-25T22:09:03.043Z,84.40
2019-04-25T22:11:34.748Z,84.40
2019-04-25T22:14:05.444Z,84.90
2019-04-25T22:16:35.583Z,85.20
2019-04-25T22:19:06.388Z,85.30
2019-04-25T22:21:38.105Z,85.40
2019-04-25T22:24:12.830Z,85.40
2019-04-25T22:26:40.236Z,85.70
2019-04-25T22:29:10.515Z,85.70
2019-04-25T22:31:42.067Z,86.50
2019-04-25T22:34:28.487Z,86.70
2019-04-25T22:36:58.620Z,86.70
2019-04-25T22:39:28.610Z,87.20
2019-04-25T22:41:59.551Z,87.50
2019-04-25T22:44:30.540Z,86.80
2019-04-25T22:47:00.921Z,86.80
2019-04-25T22:49:31.280Z,87.30
2019-04-25T22:52:01.762Z,87.10
2019-04-25T22:54:32.907Z,88.70
2019-04-25T22:57:02.886Z,89.80
2019-04-25T22:59:33.563Z,90.20
2019-04-25T23:02:21.605Z,90.30
2019-04-25T23:05:08.981Z,90.30
2019-04-25T23:07:34.296Z,90.00
2019-04-25T23:10:06.547Z,90.10
2019-04-25T23:12:36.900Z,90.20
2019-04-25T23:15:08.805Z,90.30
2019-04-25T23:17:38.844Z,90.60
2019-04-25T23:20:09.691Z,90.70
2019-04-25T23:22:39.736Z,90.90
2019-04-25T23:25:12.277Z,91.00
2019-04-25T23:28:01.817Z,91.10
2019-04-25T23:30:34.775Z,91.00
2019-04-25T23:33:05.763Z,91.30
2019-04-25T23:35:38.042Z,91.20
2019-04-25T23:38:10.795Z,91.50
2019-04-25T23:40:39.879Z,91.50
2019-04-25T23:43:11.675Z,91.40
2019-04-25T23:45:41.795Z,91.40
2019-04-25T23:48:12.411Z,91.60
2019-04-25T23:50:42.533Z,91.60
2019-04-25T23:53:12.881Z,91.60
2019-04-25T23:55:43.436Z,91.70
2019-04-25T23:58:13.480Z,92.00
